Time;durP1;ratioP1;P1;durP2;ratioP2;P2;SDS_P1;SDS_P2;PMS_P1;PMS_P2;Temp;Humidity;BMP_temperature;BMP_pressure;BME280_temperature;BME280_humidity;BME280_pressure;Samples;Min_cycle;Max_cycle;Signal;HPM_P1;HPM_P2
2023/08/05 00:01:29;;;;;;;8.23;4.90;;;;;;;;;;5027726;28;20423;-84
2023/08/05 00:03:55;;;;;;;8.00;4.72;;;;;;;;;;5055982;28;20412;-85
2023/08/05 00:06:21;;;;;;;9.50;5.00;;;;;;;;;;5026346;28;20413;-85
2023/08/05 00:08:46;;;;;;;10.30;5.28;;;14.40;99.90;;;;;;5022940;28;20429;-85
2023/08/05 00:11:12;;;;;;;10.53;4.80;;;14.50;99.90;;;;;;5005838;28;20408;-85
2023/08/05 00:13:38;;;;;;;10.35;5.70;;;;;;;;;;5021864;28;20877;-85
2023/08/05 00:16:06;;;;;;;9.98;5.32;;;14.40;99.90;;;;;;5040846;28;20453;-85
2023/08/05 00:18:32;;;;;;;8.60;5.40;;;;;;;;;;5023461;28;20449;-86
2023/08/05 00:20:58;;;;;;;9.47;5.53;;;14.60;99.90;;;;;;5038449;28;20505;-85
2023/08/05 00:23:24;;;;;;;9.33;5.33;;;;;;;;;;5005786;28;20898;-86
2023/08/05 00:25:50;;;;;;;9.90;5.40;;;14.40;99.90;;;;;;5039449;28;20856;-85
2023/08/05 00:28:16;;;;;;;10.40;5.60;;;14.50;99.90;;;;;;5048634;28;20423;-85
2023/08/05 00:30:42;;;;;;;8.67;5.43;;;;;;;;;;5050370;28;20456;-83
2023/08/05 00:33:08;;;;;;;11.97;5.70;;;14.40;99.90;;;;;;5037421;28;20414;-84
2023/08/05 00:35:33;;;;;;;12.43;5.80;;;14.40;99.90;;;;;;5020832;28;20408;-85
2023/08/05 00:37:59;;;;;;;9.68;5.55;;;14.40;99.90;;;;;;5023955;28;20425;-84
2023/08/05 00:40:25;;;;;;;9.13;5.38;;;14.50;99.90;;;;;;5032706;28;20439;-84
2023/08/05 00:42:51;;;;;;;12.13;5.75;;;14.50;99.90;;;;;;5001913;28;20944;-85
2023/08/05 00:45:16;;;;;;;10.05;5.30;;;14.40;99.90;;;;;;5037412;28;20565;-85
2023/08/05 00:47:43;;;;;;;10.63;5.70;;;;;;;;;;5006517;28;20457;-85
2023/08/05 00:50:10;;;;;;;9.82;5.63;;;14.40;99.90;;;;;;5031883;28;20989;-85
2023/08/05 00:52:37;;;;;;;8.90;5.90;;;14.20;99.90;;;;;;5015087;28;20432;-85
2023/08/05 00:55:03;;;;;;;11.57;6.40;;;14.20;99.90;;;;;;4993679;28;20498;-85
2023/08/05 00:57:29;;;;;;;11.95;6.28;;;14.30;99.90;;;;;;5003632;28;20417;-85
2023/08/05 00:59:55;;;;;;;9.53;5.90;;;;;;;;;;5032646;28;20505;-85
2023/08/05 01:02:21;;;;;;;10.77;6.07;;;;;;;;;;5019919;28;20489;-85
2023/08/05 01:04:46;;;;;;;11.68;6.68;;;13.90;99.90;;;;;;5032641;28;20422;-85
2023/08/05 01:07:13;;;;;;;14.83;7.00;;;13.80;99.90;;;;;;5019526;28;20502;-85
2023/08/05 01:09:39;;;;;;;13.63;6.82;;;;;;;;;;5033181;28;20415;-85
2023/08/05 01:12:05;;;;;;;13.65;6.53;;;;;;;;;;5017508;28;20419;-84
2023/08/05 01:14:31;;;;;;;13.48;7.65;;;;;;;;;;5019130;28;20420;-85
2023/08/05 01:16:57;;;;;;;10.43;6.40;;;13.80;99.90;;;;;;5037303;28;20761;-84
2023/08/05 01:19:25;;;;;;;12.80;7.25;;;13.80;99.90;;;;;;5016586;28;20428;-84
2023/08/05 01:22:19;;;;;;;11.43;6.55;;;13.70;99.90;;;;;;5012377;28;20977;-85
2023/08/05 01:25:00;;;;;;;11.25;6.22;;;13.60;99.90;;;;;;5016942;28;20895;-84
2023/08/05 01:27:27;;;;;;;12.88;6.13;;;13.60;99.90;;;;;;5028673;28;20482;-85
2023/08/05 01:29:53;;;;;;;12.95;6.20;;;13.60;99.90;;;;;;4999226;28;20492;-85
2023/08/05 01:32:19;;;;;;;10.50;6.78;;;13.60;99.90;;;;;;4994497;28;20421;-85
2023/08/05 01:34:47;;;;;;;10.93;6.40;;;13.50;99.90;;;;;;5018343;28;20409;-85
2023/08/05 01:37:12;;;;;;;12.90;6.53;;;13.20;99.90;;;;;;5016809;28;20417;-84
2023/08/05 01:39:38;;;;;;;11.82;6.95;;;;;;;;;;5031323;28;20423;-85
2023/08/05 01:42:05;;;;;;;13.27;6.75;;;13.20;99.90;;;;;;5032857;28;20450;-85
2023/08/05 01:44:31;;;;;;;13.38;6.47;;;;;;;;;;5003099;28;20405;-85
2023/08/05 01:46:57;;;;;;;12.30;7.10;;;;;;;;;;5023834;28;20496;-86
2023/08/05 01:49:24;;;;;;;14.88;7.22;;;13.20;99.90;;;;;;5035006;28;20950;-86
2023/08/05 01:51:50;;;;;;;11.50;7.28;;;13.20;99.90;;;;;;5008934;28;20420;-85
2023/08/05 01:54:16;;;;;;;16.45;7.50;;;13.20;99.90;;;;;;5023177;28;20396;-85
2023/08/05 01:56:42;;;;;;;11.23;6.90;;;13.20;99.90;;;;;;4991404;28;20413;-85
2023/08/05 01:59:08;;;;;;;12.18;7.57;;;;;;;;;;5044161;28;20498;-85
2023/08/05 02:01:44;;;;;;;14.73;7.30;;;;;;;;;;5024513;28;20425;-85
2023/08/05 02:04:10;;;;;;;14.60;7.50;;;;;;;;;;5038921;28;20767;-86
2023/08/05 02:06:36;;;;;;;15.05;7.68;;;;;;;;;;5017837;28;20773;-86
2023/08/05 02:09:02;;;;;;;12.93;8.20;;;;;;;;;;5023176;28;20419;-86
2023/08/05 02:11:29;;;;;;;12.05;7.75;;;;;;;;;;5049298;28;20465;-85
2023/08/05 02:13:54;;;;;;;14.15;7.88;;;13.10;99.90;;;;;;5044980;28;20443;-85
2023/08/05 02:16:21;;;;;;;13.43;7.75;;;;;;;;;;5044896;28;20399;-85
2023/08/05 02:18:47;;;;;;;13.48;7.72;;;;;;;;;;5055167;28;20814;-86
2023/08/05 02:21:13;;;;;;;17.17;7.88;;;;;;;;;;5035430;28;20448;-86
2023/08/05 02:23:39;;;;;;;13.05;7.43;;;;;;;;;;5016712;28;20967;-85
2023/08/05 02:26:05;;;;;;;13.93;7.45;;;13.20;99.90;;;;;;5021327;28;20741;-85
2023/08/05 02:28:30;;;;;;;12.05;7.03;;;13.30;99.90;;;;;;5018967;28;20447;-87
2023/08/05 02:30:56;;;;;;;12.77;7.03;;;;;;;;;;5036566;28;20399;-86
2023/08/05 02:33:22;;;;;;;13.40;6.88;;;;;;;;;;5034453;28;20407;-85
2023/08/05 02:35:48;;;;;;;12.40;6.68;;;13.30;99.90;;;;;;5038392;28;20423;-86
2023/08/05 02:38:14;;;;;;;12.50;6.87;;;13.30;99.90;;;;;;5018871;28;20407;-85
2023/08/05 02:40:40;;;;;;;13.33;6.60;;;;;;;;;;5003609;28;21090;-85
2023/08/05 02:43:06;;;;;;;11.68;6.55;;;;;;;;;;5037211;28;20428;-86
2023/08/05 02:45:33;;;;;;;10.55;6.47;;;13.20;99.90;;;;;;5036923;28;20416;-85
2023/08/05 02:47:59;;;;;;;9.95;6.10;;;;;;;;;;5030124;28;20426;-86
2023/08/05 02:50:25;;;;;;;12.18;6.68;;;;;;;;;;5040284;28;20403;-87
2023/08/05 02:52:51;;;;;;;11.50;6.82;;;;;;;;;;5025673;28;20421;-84
2023/08/05 02:55:19;;;;;;;11.45;6.72;;;;;;;;;;5020360;28;20460;-86
2023/08/05 02:57:45;;;;;;;14.50;6.43;;;;;;;;;;5037634;28;20542;-86
2023/08/05 03:00:12;;;;;;;12.98;6.93;;;13.10;99.90;;;;;;5052053;28;20412;-86
2023/08/05 03:02:38;;;;;;;13.73;6.72;;;;;;;;;;5022919;28;20899;-86
2023/08/05 03:05:04;;;;;;;13.93;7.70;;;13.10;99.90;;;;;;5052472;28;20504;-86
2023/08/05 03:07:30;;;;;;;13.97;6.93;;;;;;;;;;5048036;28;20978;-86
2023/08/05 03:09:56;;;;;;;10.80;7.18;;;;;;;;;;5053365;28;20422;-86
2023/08/05 03:12:22;;;;;;;15.63;7.18;;;;;;;;;;5039440;28;20402;-86
2023/08/05 03:14:51;;;;;;;14.25;7.88;;;13.40;99.90;;;;;;5030914;28;20993;-87
2023/08/05 03:17:17;;;;;;;16.25;7.88;;;;;;;;;;5037474;28;20421;-87
2023/08/05 03:19:43;;;;;;;14.07;7.30;;;;;;;;;;5054661;28;20411;-87
2023/08/05 03:22:09;;;;;;;11.75;7.28;;;;;;;;;;5034949;28;20824;-87
2023/08/05 03:24:35;;;;;;;12.00;7.03;;;;;;;;;;5019188;28;20401;-86
2023/08/05 03:27:01;;;;;;;12.77;7.28;;;;;;;;;;5022709;28;20425;-87
2023/08/05 03:29:27;;;;;;;12.85;7.38;;;;;;;;;;5032882;28;20421;-87
2023/08/05 03:31:53;;;;;;;12.48;7.05;;;13.50;99.90;;;;;;5036624;28;20428;-87
2023/08/05 03:34:19;;;;;;;13.10;7.20;;;13.60;99.90;;;;;;5019212;28;20393;-87
2023/08/05 03:36:45;;;;;;;12.75;7.07;;;13.30;99.90;;;;;;5035144;28;20401;-87
2023/08/05 03:39:11;;;;;;;13.27;7.43;;;;;;;;;;5028647;28;20451;-86
2023/08/05 03:41:37;;;;;;;12.95;7.43;;;;;;;;;;5040071;28;20427;-86
2023/08/05 03:44:03;;;;;;;13.35;7.43;;;;;;;;;;5044259;28;20415;-87
2023/08/05 03:46:29;;;;;;;11.75;7.15;;;13.40;99.90;;;;;;5013450;28;20481;-87
2023/08/05 03:48:56;;;;;;;12.07;7.33;;;;;;;;;;5016798;28;20421;-86
2023/08/05 03:51:21;;;;;;;11.80;7.60;;;13.50;99.90;;;;;;5038505;28;20459;-86
2023/08/05 03:53:47;;;;;;;13.13;7.50;;;;;;;;;;5021103;28;20421;-87
2023/08/05 03:56:14;;;;;;;12.20;7.27;;;;;;;;;;5017547;28;20452;-86
2023/08/05 03:58:39;;;;;;;13.43;7.60;;;13.60;99.90;;;;;;5042253;28;20463;-87
2023/08/05 04:01:06;;;;;;;13.63;7.00;;;13.50;99.90;;;;;;5016891;28;20449;-87
2023/08/05 04:03:33;;;;;;;13.15;7.63;;;;;;;;;;5011469;28;20402;-87
2023/08/05 04:05:59;;;;;;;13.97;7.33;;;;;;;;;;5035930;28;20419;-86
2023/08/05 04:08:26;;;;;;;12.18;6.95;;;13.50;99.90;;;;;;5034196;28;20423;-87
2023/08/05 04:10:52;;;;;;;14.83;7.60;;;;;;;;;;5024209;28;20743;-87
2023/08/05 04:13:18;;;;;;;11.07;7.18;;;;;;;;;;5070601;28;20916;-88
2023/08/05 04:15:46;;;;;;;12.52;7.18;;;;;;;;;;5024397;28;21036;-85
2023/08/05 04:18:12;;;;;;;13.60;7.80;;;;;;;;;;5032319;28;20927;-87
2023/08/05 04:20:40;;;;;;;13.38;7.80;;;;;;;;;;5037609;28;20984;-88
2023/08/05 04:23:08;;;;;;;10.88;7.15;;;;;;;;;;5038289;28;20415;-86
2023/08/05 04:25:34;;;;;;;10.82;7.22;;;;;;;;;;5036688;28;20974;-86
2023/08/05 04:28:00;;;;;;;13.30;7.72;;;;;;;;;;5042607;28;20427;-86
2023/08/05 04:30:27;;;;;;;17.13;8.35;;;;;;;;;;5042333;28;20412;-87
2023/08/05 04:32:53;;;;;;;15.88;8.23;;;;;;;;;;5067885;28;20495;-85
2023/08/05 04:35:19;;;;;;;16.67;7.53;;;;;;;;;;5026057;28;20399;-86
2023/08/05 04:37:45;;;;;;;17.33;7.40;;;;;;;;;;5042397;28;20411;-86
2023/08/05 04:40:11;;;;;;;12.55;7.43;;;;;;;;;;5041195;28;20431;-86
2023/08/05 04:42:37;;;;;;;12.15;6.78;;;13.40;99.90;;;;;;5041512;28;20420;-85
2023/08/05 04:45:03;;;;;;;12.27;7.43;;;;;;;;;;5041998;28;20461;-85
2023/08/05 04:47:29;;;;;;;13.82;7.65;;;;;;;;;;5024743;28;20943;-86
2023/08/05 04:49:55;;;;;;;12.77;7.45;;;;;;;;;;5024561;28;20419;-86
2023/08/05 04:52:21;;;;;;;12.88;7.45;;;13.50;99.90;;;;;;5040780;28;20479;-85
2023/08/05 04:54:47;;;;;;;16.30;6.68;;;13.60;99.90;;;;;;5042094;28;20438;-85
2023/08/05 04:57:13;;;;;;;12.10;6.78;;;;;;;;;;5007758;28;20773;-85
2023/08/05 04:59:39;;;;;;;11.77;6.68;;;13.70;99.90;;;;;;5057417;28;20403;-86
2023/08/05 05:02:05;;;;;;;14.55;6.55;;;13.60;99.90;;;;;;5040346;28;20424;-86
2023/08/05 05:04:31;;;;;;;11.83;6.80;;;;;;;;;;5042218;28;20449;-82
2023/08/05 05:06:58;;;;;;;13.20;7.17;;;;;;;;;;5024987;28;20427;-83
2023/08/05 05:09:24;;;;;;;10.90;6.75;;;;;;;;;;5038739;28;20401;-82
2023/08/05 05:11:50;;;;;;;12.32;6.80;;;;;;;;;;5043904;28;20419;-82
2023/08/05 05:14:16;;;;;;;16.43;6.80;;;;;;;;;;5060288;28;20491;-82
2023/08/05 05:16:42;;;;;;;10.85;6.22;;;;;;;;;;5042327;28;20430;-83
2023/08/05 05:19:09;;;;;;;7.72;5.68;;;;;;;;;;5059524;28;20532;-83
2023/08/05 05:21:35;;;;;;;11.57;6.00;;;14.10;99.90;;;;;;5042612;28;20409;-83
2023/08/05 05:24:01;;;;;;;10.57;6.13;;;;;;;;;;5059454;28;20398;-84
2023/08/05 05:26:27;;;;;;;10.50;5.22;;;;;;;;;;5043876;28;20408;-83
2023/08/05 05:28:53;;;;;;;10.05;5.22;;;;;;;;;;5025621;28;20426;-82
2023/08/05 05:31:19;;;;;;;8.13;4.75;;;;;;;;;;5053502;28;20430;-83
2023/08/05 05:33:47;;;;;;;10.98;4.72;;;;;;;;;;5055459;28;20402;-84
2023/08/05 05:36:13;;;;;;;11.43;5.13;;;;;;;;;;5063721;28;20457;-84
2023/08/05 05:38:41;;;;;;;8.70;5.18;;;14.40;99.90;;;;;;5058155;28;20899;-82
2023/08/05 05:41:07;;;;;;;12.05;4.78;;;;;;;;;;5042008;28;20415;-82
2023/08/05 05:43:38;;;;;;;8.07;4.88;;;14.50;99.90;;;;;;5036838;28;20438;-82
2023/08/05 05:46:04;;;;;;;10.13;4.80;;;;;;;;;;5019868;28;20962;-82
2023/08/05 05:48:30;;;;;;;9.73;4.65;;;14.80;99.90;;;;;;5020975;28;20515;-83
2023/08/05 05:50:56;;;;;;;12.25;4.38;;;;;;;;;;5072476;28;20416;-81
2023/08/05 05:53:22;;;;;;;8.80;4.15;;;15.00;99.90;;;;;;5041618;28;20422;-81
2023/08/05 05:55:53;;;;;;;14.75;4.10;;;14.90;99.90;;;;;;5034871;28;20437;-80
2023/08/05 05:58:19;;;;;;;8.00;3.72;;;;;;;;;;5037222;28;20881;-81
2023/08/05 06:00:45;;;;;;;11.03;3.73;;;14.90;99.90;;;;;;5041110;28;20783;-82
2023/08/05 06:03:11;;;;;;;8.07;4.30;;;14.70;99.90;;;;;;5049132;28;20502;-82
2023/08/05 06:05:41;;;;;;;6.03;3.90;;;15.10;99.90;;;;;;5089746;28;20396;-81
2023/08/05 06:08:07;;;;;;;8.55;4.40;;;15.10;99.90;;;;;;5019921;28;20440;-81
2023/08/05 06:10:40;;;;;;;8.15;3.80;;;14.90;99.90;;;;;;5050857;28;20420;-81
2023/08/05 06:13:05;;;;;;;10.70;4.25;;;15.00;99.90;;;;;;5055240;28;20419;-82
2023/08/05 06:15:31;;;;;;;7.83;3.47;;;15.00;99.90;;;;;;5069602;28;20501;-81
2023/08/05 06:18:03;;;;;;;9.00;3.85;;;;;;;;;;5062797;28;20948;-83
2023/08/05 06:20:29;;;;;;;8.63;3.72;;;15.40;99.90;;;;;;5025683;28;20840;-83
2023/08/05 06:22:55;;;;;;;9.13;4.20;;;15.40;99.90;;;;;;5048136;28;20402;-85
2023/08/05 06:25:21;;;;;;;10.37;4.23;;;15.50;99.90;;;;;;5068936;28;20403;-85
2023/08/05 06:27:47;;;;;;;7.87;4.20;;;15.40;99.90;;;;;;5055531;28;20540;-85
2023/08/05 06:30:12;;;;;;;8.30;3.92;;;15.80;99.90;;;;;;5037338;28;20845;-85
2023/08/05 06:32:38;;;;;;;8.18;3.97;;;15.90;99.90;;;;;;5048435;28;20401;-85
2023/08/05 06:35:07;;;;;;;8.70;3.70;;;16.10;99.90;;;;;;5059883;28;20781;-86
2023/08/05 06:37:33;;;;;;;9.35;3.42;;;16.40;99.90;;;;;;5071841;28;20415;-84
2023/08/05 06:39:59;;;;;;;6.27;3.30;;;16.50;99.90;;;;;;5060247;28;20420;-84
2023/08/05 06:42:25;;;;;;;8.48;3.67;;;16.30;99.90;;;;;;5053846;28;20493;-85
2023/08/05 06:44:52;;;;;;;7.60;3.40;;;16.30;99.90;;;;;;5039394;28;20976;-86
2023/08/05 06:47:18;;;;;;;5.65;3.35;;;16.40;99.90;;;;;;5037086;28;20458;-85
2023/08/05 06:49:44;;;;;;;6.43;3.20;;;16.10;99.90;;;;;;5035441;28;20928;-85
2023/08/05 06:52:10;;;;;;;6.07;3.20;;;16.20;99.90;;;;;;5028629;28;20745;-85
2023/08/05 06:54:38;;;;;;;8.27;3.10;;;16.30;99.90;;;;;;5036382;28;20750;-85
2023/08/05 06:57:04;;;;;;;7.65;3.63;;;16.40;99.90;;;;;;5029445;28;20496;-85
2023/08/05 06:59:30;;;;;;;6.17;3.10;;;16.30;99.90;;;;;;5019349;28;20440;-86
2023/08/05 07:01:56;;;;;;;7.23;3.27;;;16.40;99.90;;;;;;5042353;28;20954;-85
2023/08/05 07:04:22;;;;;;;5.87;3.10;;;16.50;99.90;;;;;;5049784;28;20456;-86
2023/08/05 07:06:48;;;;;;;6.78;3.13;;;16.30;99.90;;;;;;5039905;28;20463;-85
2023/08/05 07:09:13;;;;;;;6.35;2.80;;;16.30;99.90;;;;;;5073047;28;20414;-86
2023/08/05 07:11:39;;;;;;;7.00;3.05;;;16.70;99.90;;;;;;5043021;28;20404;-84
2023/08/05 07:14:05;;;;;;;5.22;2.83;;;16.60;99.90;;;;;;5019529;28;20401;-85
2023/08/05 07:16:31;;;;;;;7.00;2.85;;;16.60;99.90;;;;;;5019357;28;20911;-85
2023/08/05 07:18:57;;;;;;;4.80;2.53;;;16.60;99.90;;;;;;5037290;28;20466;-85
2023/08/05 07:21:22;;;;;;;6.43;3.00;;;16.60;99.90;;;;;;5038085;28;20453;-86
2023/08/05 07:23:50;;;;;;;6.07;3.00;;;16.70;99.90;;;;;;5057129;28;20419;-85
2023/08/05 07:26:16;;;;;;;5.00;2.90;;;16.90;99.90;;;;;;5052261;28;20424;-85
2023/08/05 07:28:45;;;;;;;6.43;2.88;;;16.80;99.90;;;;;;5037975;28;20431;-86
2023/08/05 07:35:07;;;;;;;6.88;3.25;;;17.10;99.90;;;;;;4975484;28;20402;-85
2023/08/05 07:37:34;;;;;;;5.82;2.95;;;16.70;99.90;;;;;;5015528;28;20816;-86
2023/08/05 07:40:12;;;;;;;6.95;3.00;;;16.80;99.90;;;;;;5030928;28;20411;-86
2023/08/05 07:42:45;;;;;;;6.47;3.00;;;16.90;99.90;;;;;;5037736;28;20433;-85
2023/08/05 07:45:16;;;;;;;8.55;3.00;;;18.20;99.90;;;;;;5016849;28;20824;-86
2023/08/05 07:47:45;;;;;;;6.57;3.15;;;17.50;99.90;;;;;;5039129;28;20435;-86
2023/08/05 07:50:16;;;;;;;9.20;3.00;;;17.10;99.90;;;;;;5034960;28;20413;-85
2023/08/05 07:52:43;;;;;;;9.05;2.90;;;17.20;99.90;;;;;;5055484;28;20440;-85
2023/08/05 07:55:11;;;;;;;6.72;3.13;;;17.20;99.90;;;;;;5037391;28;20421;-85
2023/08/05 07:58:22;;;;;;;5.13;2.80;;;17.30;99.90;;;;;;5042136;28;20491;-86
2023/08/05 08:00:59;;;;;;;7.60;3.08;;;17.20;99.90;;;;;;5016596;28;20424;-86
2023/08/05 08:03:28;;;;;;;7.23;3.30;;;16.70;99.90;;;;;;5004274;28;20475;-83
2023/08/05 08:06:17;;;;;;;6.13;3.20;;;17.30;99.90;;;;;;5033912;28;20441;-83
2023/08/05 08:08:43;;;;;;;6.15;2.85;;;17.30;99.90;;;;;;5048671;28;20415;-83
2023/08/05 08:11:12;;;;;;;8.43;3.30;;;17.50;99.90;;;;;;5035367;28;20786;-83
2023/08/05 08:13:41;;;;;;;6.65;3.20;;;17.50;99.90;;;;;;5021996;28;20421;-83
2023/08/05 08:16:15;;;;;;;6.28;3.10;;;17.40;99.90;;;;;;5024863;28;20452;-84
2023/08/05 08:18:44;;;;;;;6.70;3.30;;;17.50;99.90;;;;;;5031496;28;20512;-83
2023/08/05 08:21:16;;;;;;;5.88;3.30;;;17.70;99.90;;;;;;5007143;28;20509;-84
2023/08/05 08:23:41;;;;;;;7.82;3.38;;;17.50;99.90;;;;;;5014451;28;20432;-83
2023/08/05 08:26:07;;;;;;;5.97;3.03;;;17.60;99.90;;;;;;5021402;28;20425;-83
2023/08/05 08:28:33;;;;;;;7.18;2.97;;;17.90;99.90;;;;;;5017349;28;20484;-83
2023/08/05 08:30:59;;;;;;;6.70;3.40;;;17.50;99.90;;;;;;4992193;28;20425;-82
2023/08/05 08:33:26;;;;;;;6.67;3.20;;;17.70;99.90;;;;;;5001229;28;20520;-82
2023/08/05 08:35:52;;;;;;;5.55;3.15;;;17.80;99.90;;;;;;5032284;28;20419;-84
2023/08/05 08:38:18;;;;;;;7.80;3.83;;;17.70;99.90;;;;;;5018490;28;20844;-82
2023/08/05 08:40:49;;;;;;;6.47;2.95;;;17.90;99.90;;;;;;5013510;28;20783;-82
2023/08/05 08:43:19;;;;;;;6.10;3.10;;;18.20;99.90;;;;;;5027056;28;20580;-82
2023/08/05 08:45:47;;;;;;;7.07;3.30;;;18.10;99.90;;;;;;5033325;28;20509;-83
2023/08/05 08:48:15;;;;;;;6.50;3.25;;;18.70;99.90;;;;;;5043151;28;20524;-82
2023/08/05 08:50:42;;;;;;;5.88;2.90;;;18.70;99.90;;;;;;5032569;28;20416;-83
2023/08/05 08:53:14;;;;;;;7.40;3.00;;;18.60;99.90;;;;;;5034958;28;20444;-82
2023/08/05 08:55:43;;;;;;;6.13;2.83;;;18.90;99.90;;;;;;5025968;28;20413;-82
2023/08/05 08:58:10;;;;;;;5.38;2.70;;;17.20;99.90;;;;;;5037108;28;20508;-81
2023/08/05 09:00:37;;;;;;;6.30;2.90;;;18.80;99.90;;;;;;5034358;28;20420;-82
2023/08/05 09:03:10;;;;;;;5.43;2.63;;;18.60;99.90;;;;;;5033290;28;20428;-82
2023/08/05 09:05:42;;;;;;;6.10;2.63;;;19.20;99.90;;;;;;5038265;28;20419;-82
2023/08/05 09:08:09;;;;;;;6.25;3.03;;;19.40;99.90;;;;;;5037327;28;20426;-81
2023/08/05 09:10:39;;;;;;;5.60;2.55;;;19.30;99.90;;;;;;5004497;28;20451;-83
2023/08/05 09:13:08;;;;;;;4.35;2.65;;;19.00;99.90;;;;;;5039125;28;20396;-83
2023/08/05 09:15:37;;;;;;;6.82;2.60;;;19.10;99.90;;;;;;5036894;28;20510;-83
2023/08/05 09:18:04;;;;;;;6.27;2.80;;;19.60;99.90;;;;;;5037482;28;20470;-85
2023/08/05 09:20:37;;;;;;;5.60;2.47;;;20.10;99.90;;;;;;5052743;28;20432;-82
2023/08/05 09:23:08;;;;;;;5.03;2.50;;;20.50;99.90;;;;;;5036579;28;20396;-83
2023/08/05 09:25:49;;;;;;;4.07;2.40;;;20.30;99.90;;;;;;5052566;28;20508;-83
2023/08/05 09:28:35;;;;;;;5.30;2.58;;;19.50;99.90;;;;;;5049487;28;20416;-83
2023/08/05 09:31:16;;;;;;;4.53;2.10;;;19.50;99.90;;;;;;5036596;28;20436;-83
2023/08/05 09:33:42;;;;;;;4.88;2.28;;;19.70;99.90;;;;;;5030190;28;20489;-83
2023/08/05 09:36:13;;;;;;;5.20;2.60;;;19.70;99.90;;;;;;5048305;28;20901;-84
2023/08/05 09:38:44;;;;;;;4.25;2.47;;;19.60;99.90;;;;;;5029270;28;20427;-83
2023/08/05 09:41:11;;;;;;;4.97;2.20;;;19.10;99.90;;;;;;5054074;28;20426;-84
2023/08/05 09:43:43;;;;;;;6.00;2.27;;;21.20;99.90;;;;;;5025889;28;20785;-83
2023/08/05 09:46:25;;;;;;;5.28;2.40;;;20.00;99.90;;;;;;5072715;28;20902;-83
2023/08/05 09:48:52;;;;;;;6.50;2.53;;;20.30;99.90;;;;;;5033284;28;20951;-83
2023/08/05 09:51:27;;;;;;;4.72;2.80;;;19.30;99.90;;;;;;5034132;28;20746;-83
2023/08/05 09:53:58;;;;;;;4.82;2.45;;;20.10;99.90;;;;;;5064169;28;20411;-84
2023/08/05 09:56:25;;;;;;;4.72;2.40;;;20.80;99.90;;;;;;5036818;28;20414;-84
2023/08/05 09:58:52;;;;;;;4.05;2.13;;;20.00;99.90;;;;;;5042274;28;20459;-83
2023/08/05 10:01:19;;;;;;;4.22;2.40;;;20.10;99.90;;;;;;5054826;28;20449;-83
2023/08/05 10:03:52;;;;;;;4.13;2.08;;;20.00;99.90;;;;;;5039669;28;20549;-83
2023/08/05 10:06:22;;;;;;;4.18;2.17;;;20.30;99.90;;;;;;5022244;28;20437;-82
2023/08/05 10:08:48;;;;;;;4.85;2.33;;;20.10;99.90;;;;;;5023375;28;20419;-82
2023/08/05 10:11:14;;;;;;;4.70;2.20;;;20.10;99.90;;;;;;5052247;28;20512;-81
2023/08/05 10:13:47;;;;;;;5.00;2.40;;;20.10;99.90;;;;;;5051886;28;20483;-81
2023/08/05 10:16:13;;;;;;;4.30;2.55;;;20.30;99.90;;;;;;5046688;28;20405;-82
2023/08/05 10:18:45;;;;;;;4.18;2.33;;;20.10;99.90;;;;;;5015890;28;20419;-82
2023/08/05 10:21:11;;;;;;;5.00;2.53;;;19.30;99.90;;;;;;5032571;28;20492;-81
2023/08/05 10:23:38;;;;;;;6.95;2.50;;;19.80;99.90;;;;;;5044106;28;20464;-81
2023/08/05 10:26:05;;;;;;;7.10;2.97;;;18.60;99.90;;;;;;5061654;28;20428;-82
2023/08/05 10:28:34;;;;;;;4.30;2.40;;;22.50;99.90;;;;;;5022193;28;20426;-81
2023/08/05 10:31:03;;;;;;;5.82;2.92;;;20.60;99.90;;;;;;5027740;28;20987;-82
2023/08/05 10:33:49;;;;;;;5.18;2.58;;;20.50;99.90;;;;;;5031715;28;20419;-81
2023/08/05 10:36:17;;;;;;;5.03;2.40;;;20.40;99.90;;;;;;5047151;28;20428;-81
2023/08/05 10:38:46;;;;;;;9.05;2.45;;;20.40;99.90;;;;;;5044062;28;20423;-80
2023/08/05 10:41:39;;;;;;;6.20;2.88;;;20.50;99.90;;;;;;5061277;28;20754;-81
2023/08/05 10:44:06;;;;;;;6.13;2.30;;;22.10;99.90;;;;;;5028728;28;20949;-81
2023/08/05 10:46:33;;;;;;;3.73;2.23;;;21.10;99.90;;;;;;5017945;28;20795;-81
2023/08/05 10:49:05;;;;;;;6.30;2.65;;;20.90;99.90;;;;;;5052560;28;20429;-81
2023/08/05 10:51:32;;;;;;;3.65;2.13;;;21.40;99.90;;;;;;5025350;28;20421;-80
2023/08/05 10:53:59;;;;;;;4.82;2.33;;;20.90;99.90;;;;;;5051162;28;20516;-81
2023/08/05 10:56:39;;;;;;;4.05;2.50;;;21.20;99.90;;;;;;5011780;28;20486;-81
2023/08/05 10:59:13;;;;;;;7.40;2.80;;;20.90;99.90;;;;;;5032395;28;20412;-79
2023/08/05 11:01:53;;;;;;;4.25;2.50;;;20.40;99.90;;;;;;5013624;28;20835;-81
2023/08/05 11:04:48;;;;;;;5.00;2.65;;;20.40;99.90;;;;;;5028958;28;20447;-82
2023/08/05 11:07:24;;;;;;;4.40;2.47;;;22.10;99.90;;;;;;5010275;28;20475;-80
2023/08/05 11:09:54;;;;;;;5.13;2.50;;;20.90;99.90;;;;;;5028475;28;20950;-80
2023/08/05 11:12:40;;;;;;;4.82;2.83;;;21.10;99.90;;;;;;5046765;28;20413;-82
2023/08/05 11:15:19;;;;;;;5.18;2.47;;;20.90;99.90;;;;;;4989029;28;20920;-82
2023/08/05 11:17:54;;;;;;;5.53;2.30;;;20.50;99.90;;;;;;4917210;29;20433;-82
2023/08/05 11:20:31;;;;;;;4.80;2.30;;;20.40;99.90;;;;;;4949217;28;20426;-82
2023/08/05 11:23:00;;;;;;;4.17;2.20;;;20.50;99.90;;;;;;4921498;29;20429;-82
2023/08/05 11:25:26;;;;;;;4.55;2.75;;;20.40;99.90;;;;;;4949857;29;20425;-83
2023/08/05 11:27:53;;;;;;;4.50;2.58;;;20.70;99.90;;;;;;4954153;29;20441;-83
2023/08/05 11:30:20;;;;;;;5.22;2.58;;;20.60;99.90;;;;;;4925195;29;20421;-80
2023/08/05 11:32:53;;;;;;;4.43;2.40;;;21.10;99.90;;;;;;4905086;29;20420;-81
2023/08/05 11:35:19;;;;;;;5.50;2.70;;;20.70;99.90;;;;;;4952483;29;20436;-82
2023/08/05 11:37:45;;;;;;;4.47;2.60;;;20.90;99.90;;;;;;4931086;29;20435;-83
2023/08/05 11:40:46;;;;;;;4.72;2.90;;;20.90;99.90;;;;;;4907382;29;20433;-83
2023/08/05 11:43:13;;;;;;;4.63;3.00;;;20.60;99.90;;;;;;4956589;28;20484;-81
2023/08/05 11:45:51;;;;;;;4.78;3.00;;;20.80;99.90;;;;;;4976841;28;20505;-82
2023/08/05 11:48:31;;;;;;;5.60;3.00;;;21.20;99.90;;;;;;4959841;28;20946;-83
2023/08/05 11:51:06;;;;;;;6.80;3.63;;;20.00;99.90;;;;;;4951017;28;20498;-84
2023/08/05 11:53:38;;;;;;;7.10;3.97;;;20.10;99.90;;;;;;4997290;28;20493;-84
2023/08/05 11:56:16;;;;;;;8.20;4.37;;;18.60;99.90;;;;;;5032105;28;20413;-83
2023/08/05 11:58:58;;;;;;;5.25;4.05;;;19.50;99.90;;;;;;5042953;28;20419;-82
2023/08/05 12:01:31;;;;;;;5.93;4.50;;;19.10;99.90;;;;;;5036975;28;20487;-83
2023/08/05 12:03:57;;;;;;;8.27;4.95;;;19.70;99.90;;;;;;5052876;28;20421;-81
2023/08/05 12:06:26;;;;;;;8.32;5.32;;;19.60;99.90;;;;;;5066241;28;20506;-81
2023/08/05 12:08:59;;;;;;;8.93;5.18;;;19.70;99.90;;;;;;5032373;28;20512;-82
2023/08/05 12:11:25;;;;;;;8.63;5.10;;;19.60;99.90;;;;;;5022012;28;20401;-81
2023/08/05 12:13:51;;;;;;;8.45;5.43;;;19.40;99.90;;;;;;5057249;28;20494;-81
2023/08/05 12:16:17;;;;;;;7.63;5.10;;;19.50;99.90;;;;;;5034197;28;20483;-83
2023/08/05 12:18:44;;;;;;;7.57;5.13;;;19.50;99.90;;;;;;5036209;28;20498;-82
2023/08/05 12:21:10;;;;;;;7.30;5.20;;;19.70;99.90;;;;;;5034978;28;20419;-82
2023/08/05 12:23:40;;;;;;;7.47;5.00;;;19.90;99.90;;;;;;5056537;28;20459;-82
2023/08/05 12:26:07;;;;;;;6.28;4.72;;;19.50;99.90;;;;;;5053956;28;20750;-83
2023/08/05 12:28:33;;;;;;;8.00;4.90;;;19.60;99.90;;;;;;5053903;28;20838;-83
2023/08/05 12:30:58;;;;;;;9.37;5.03;;;19.50;99.90;;;;;;5034498;28;20413;-83
2023/08/05 12:33:24;;;;;;;5.80;4.57;;;19.50;99.90;;;;;;5032918;28;20466;-82
2023/08/05 12:35:50;;;;;;;6.97;4.80;;;19.30;99.90;;;;;;5053145;28;20503;-80
2023/08/05 12:38:15;;;;;;;6.00;4.33;;;19.20;99.90;;;;;;5038225;28;20426;-79
2023/08/05 12:40:41;;;;;;;6.32;4.63;;;19.30;99.90;;;;;;5045913;28;20405;-80
2023/08/05 12:43:07;;;;;;;7.90;5.55;;;18.80;99.90;;;;;;5041985;28;20427;-80
2023/08/05 12:45:33;;;;;;;7.80;6.37;;;19.40;99.90;;;;;;5057620;28;20933;-79
2023/08/05 12:47:58;;;;;;;7.83;6.40;;;19.30;99.90;;;;;;5054635;28;20943;-80
2023/08/05 12:50:24;;;;;;;8.40;6.40;;;19.60;99.90;;;;;;5058272;28;20418;-81
2023/08/05 12:52:50;;;;;;;7.93;6.10;;;19.50;99.90;;;;;;5078120;28;20457;-80
2023/08/05 12:55:16;;;;;;;10.87;7.00;;;20.10;99.90;;;;;;5038511;28;20485;-80
2023/08/05 12:57:42;;;;;;;9.57;6.80;;;19.70;99.90;;;;;;5048142;28;20436;-79
2023/08/05 13:00:09;;;;;;;9.75;7.10;;;19.60;99.90;;;;;;5025274;28;20402;-78
2023/08/05 13:02:35;;;;;;;8.45;7.00;;;19.70;99.90;;;;;;5056880;28;20482;-78
2023/08/05 13:05:01;;;;;;;8.50;6.80;;;19.80;99.90;;;;;;5073374;28;20487;-79
2023/08/05 13:07:26;;;;;;;10.20;7.30;;;19.50;99.90;;;;;;5032917;28;20418;-79
2023/08/05 13:09:52;;;;;;;11.63;7.35;;;20.60;99.90;;;;;;5033562;28;20490;-79
2023/08/05 13:12:18;;;;;;;11.07;7.28;;;19.70;99.90;;;;;;5037199;28;20405;-80
2023/08/05 13:14:44;;;;;;;8.87;6.93;;;19.50;99.90;;;;;;5039034;28;20415;-79
2023/08/05 13:17:10;;;;;;;8.90;7.05;;;19.80;99.90;;;;;;5070144;28;20494;-80
2023/08/05 13:19:36;;;;;;;10.35;7.55;;;19.70;99.90;;;;;;5029796;28;20473;-79